Time;durP1;ratioP1;P1;durP2;ratioP2;P2;SDS_P1;SDS_P2;PMS_P1;PMS_P2;Temp;Humidity;BMP_temperature;BMP_pressure;BME280_temperature;BME280_humidity;BME280_pressure;Samples;Min_cycle;Max_cycle;Signal;HPM_P1;HPM_P2
2024/02/20 00:01:45;;;;;;;;;;;;;;;4.84;84.52;97078.00;7403214;19;1810;-69
2024/02/20 00:04:17;;;;;;;;;;;;;;;4.85;84.53;97074.53;7403024;19;1842;-67
2024/02/20 00:06:45;;;;;;;;;;;;;;;4.87;84.20;97077.13;7400588;19;1838;-70
2024/02/20 00:09:14;;;;;;;;;;;;;;;4.85;84.08;97073.69;7402700;19;1836;-71
2024/02/20 00:11:43;;;;;;;;;;;;;;;4.87;83.91;97067.63;7402873;19;1008;-72
2024/02/20 00:14:14;;;;;;;;;;;;;;;4.85;84.07;97063.31;7402313;19;1127;-66
2024/02/20 00:16:42;;;;;;;;;;;;;;;4.88;83.83;97066.75;7402680;19;954;-69
2024/02/20 00:19:10;;;;;;;;;;;;;;;4.85;84.00;97064.16;7402582;19;1822;-69
2024/02/20 00:21:40;;;;;;;;;;;;;;;4.85;84.15;97064.16;7402321;19;1929;-71
2024/02/20 00:24:09;;;;;;;;;;;;;;;4.84;83.94;97067.63;7402057;19;1085;-68
2024/02/20 00:26:37;;;;;;;;;;;;;;;4.87;84.30;97062.44;7399123;19;1850;-70
2024/02/20 00:29:05;;;;;;;;;;;;;;;4.83;84.12;97057.28;7400533;19;1891;-68
2024/02/20 00:31:51;;;;;;;;;;;;;;;4.85;84.32;97058.13;7401375;19;1080;-69
2024/02/20 00:34:19;;;;;;;;;;;;;;;4.91;84.06;97055.50;7401578;19;1018;-71
2024/02/20 00:36:47;;;;;;;;;;;;;;;4.93;84.54;97053.75;7401943;19;1932;-71
2024/02/20 00:39:16;;;;;;;;;;;;;;;4.89;84.52;97042.56;7400086;19;1807;-65
2024/02/20 00:41:45;;;;;;;;;;;;;;;4.89;84.76;97046.88;7401367;19;1108;-65
2024/02/20 00:44:13;;;;;;;;;;;;;;;4.87;84.70;97044.28;7401286;19;981;-69
2024/02/20 00:46:42;;;;;;;;;;;;;;;4.86;84.73;97042.56;7400435;19;1850;-73
2024/02/20 00:49:13;;;;;;;;;;;;;;;4.88;84.67;97043.41;7401187;19;1017;-68
2024/02/20 00:51:43;;;;;;;;;;;;;;;4.90;84.36;97036.50;7401558;19;1017;-68
2024/02/20 00:54:11;;;;;;;;;;;;;;;4.96;84.46;97034.75;7400923;19;950;-68
2024/02/20 00:56:40;;;;;;;;;;;;;;;4.97;84.36;97037.28;7401334;19;1005;-70
2024/02/20 00:59:09;;;;;;;;;;;;;;;5.03;84.21;97039.84;7400777;19;1041;-66
2024/02/20 01:01:37;;;;;;;;;;;;;;;5.05;83.71;97029.47;7400837;19;1200;-69
2024/02/20 01:04:06;;;;;;;;;;;;;;;5.03;84.18;97023.44;7400691;19;1041;-66
2024/02/20 01:06:38;;;;;;;;;;;;;;;5.05;84.27;97021.69;7399796;19;1845;-68
2024/02/20 01:09:07;;;;;;;;;;;;;;;5.08;83.90;97018.22;7400612;19;1100;-71
2024/02/20 01:11:35;;;;;;;;;;;;;;;5.09;83.68;97019.94;7400520;19;1085;-74
2024/02/20 01:14:04;;;;;;;;;;;;;;;5.11;83.97;97018.16;7400838;19;1827;-71
2024/02/20 01:16:32;;;;;;;;;;;;;;;5.09;83.94;97018.19;7400709;19;1036;-70
2024/02/20 01:19:01;;;;;;;;;;;;;;;5.06;83.80;97013.03;7400438;19;1904;-73
2024/02/20 01:21:30;;;;;;;;;;;;;;;5.06;83.91;97015.63;7400241;19;1804;-68
2024/02/20 01:24:01;;;;;;;;;;;;;;;5.05;83.94;97011.31;7400419;19;946;-72
2024/02/20 01:26:30;;;;;;;;;;;;;;;5.04;84.01;97009.59;7398794;19;1831;-68
2024/02/20 01:28:59;;;;;;;;;;;;;;;5.04;83.85;97004.41;7399839;19;1116;-70
2024/02/20 01:31:28;;;;;;;;;;;;;;;5.03;83.48;97011.31;7400060;19;1880;-71
2024/02/20 01:33:57;;;;;;;;;;;;;;;5.04;83.22;97012.19;7399703;19;982;-66
2024/02/20 01:36:25;;;;;;;;;;;;;;;5.03;83.23;97011.31;7400113;19;968;-71
2024/02/20 01:38:55;;;;;;;;;;;;;;;5.03;82.89;97005.28;7397244;19;1814;-68
2024/02/20 01:41:27;;;;;;;;;;;;;;;5.05;82.60;97006.13;7399439;19;1053;-74
2024/02/20 01:43:55;;;;;;;;;;;;;;;5.08;82.77;96997.47;7399489;19;946;-65
2024/02/20 01:46:24;;;;;;;;;;;;;;;5.09;82.26;96999.19;7399230;19;1829;-70
2024/02/20 01:48:53;;;;;;;;;;;;;;;5.08;82.37;96995.72;7399166;19;1868;-68
2024/02/20 01:51:23;;;;;;;;;;;;;;;5.05;82.56;96993.16;7399169;19;1041;-71
2024/02/20 01:53:52;;;;;;;;;;;;;;;5.05;82.62;96991.44;7398993;19;1213;-68
2024/02/20 01:56:21;;;;;;;;;;;;;;;5.05;82.57;96988.84;7399358;19;1949;-70
2024/02/20 01:58:52;;;;;;;;;;;;;;;5.06;82.48;96993.13;7399229;19;1923;-72
2024/02/20 02:01:24;;;;;;;;;;;;;;;5.03;83.12;96990.56;7399274;19;1036;-68
2024/02/20 02:03:53;;;;;;;;;;;;;;;5.03;83.26;96989.72;7398800;19;1095;-68
2024/02/20 02:06:29;;;;;;;;;;;;;;;5.04;83.41;96987.13;7398669;19;1845;-66
2024/02/20 02:08:57;;;;;;;;;;;;;;;4.98;83.29;96979.41;7398453;19;1116;-71
2024/02/20 02:11:26;;;;;;;;;;;;;;;4.97;83.30;96980.25;7398486;19;1084;-71
2024/02/20 02:13:57;;;;;;;;;;;;;;;4.97;83.23;96980.25;7398356;19;1073;-64
2024/02/20 02:16:25;;;;;;;;;;;;;;;4.99;83.58;96985.41;7398286;19;1100;-70
2024/02/20 02:18:54;;;;;;;;;;;;;;;5.00;82.92;96982.81;7398568;19;1608;-66
2024/02/20 02:21:22;;;;;;;;;;;;;;;4.99;82.86;96985.41;7398450;19;1801;-64
2024/02/20 02:23:51;;;;;;;;;;;;;;;4.99;83.04;96985.41;7398604;19;976;-71
2024/02/20 02:26:22;;;;;;;;;;;;;;;4.98;83.23;96988.91;7397908;19;1837;-67
2024/02/20 02:28:50;;;;;;;;;;;;;;;4.98;82.68;96987.16;7397880;19;1096;-67
2024/02/20 02:31:20;;;;;;;;;;;;;;;4.97;82.65;96988.03;7398345;19;957;-65
2024/02/20 02:33:48;;;;;;;;;;;;;;;4.97;82.60;96987.19;7397743;19;1049;-72
2024/02/20 02:36:17;;;;;;;;;;;;;;;4.97;82.58;96997.56;7398127;19;1911;-65
2024/02/20 02:38:45;;;;;;;;;;;;;;;4.97;82.97;96989.78;7397071;19;1168;-69
2024/02/20 02:41:14;;;;;;;;;;;;;;;4.94;82.79;96988.06;7397631;19;1128;-70
2024/02/20 02:43:45;;;;;;;;;;;;;;;4.91;83.24;96986.34;7397467;19;1032;-71
2024/02/20 02:46:14;;;;;;;;;;;;;;;4.92;82.79;96989.81;7397182;19;1850;-66
2024/02/20 02:48:43;;;;;;;;;;;;;;;4.92;82.81;96982.91;7397251;19;1045;-68
2024/02/20 02:51:11;;;;;;;;;;;;;;;4.93;82.86;96982.03;7395622;19;1043;-65
2024/02/20 02:53:41;;;;;;;;;;;;;;;4.94;82.69;96982.91;7397348;19;1907;-65
2024/02/20 02:56:13;;;;;;;;;;;;;;;4.95;82.51;96992.38;7397410;19;1821;-66
2024/02/20 02:58:44;;;;;;;;;;;;;;;4.91;82.01;96988.94;7397050;19;1120;-69
2024/02/20 03:01:13;;;;;;;;;;;;;;;4.87;82.93;96989.84;7396977;19;1135;-71
2024/02/20 03:03:42;;;;;;;;;;;;;;;4.87;82.89;96988.97;7397318;19;1005;-69
2024/02/20 03:06:11;;;;;;;;;;;;;;;4.85;83.09;96988.16;7396848;19;1915;-67
2024/02/20 03:08:40;;;;;;;;;;;;;;;4.85;83.17;96988.97;7397427;19;1649;-68
2024/02/20 03:11:08;;;;;;;;;;;;;;;4.80;83.26;96988.19;7396646;19;1041;-68
2024/02/20 03:13:37;;;;;;;;;;;;;;;4.83;82.93;96997.66;7396948;19;1922;-64
2024/02/20 03:16:09;;;;;;;;;;;;;;;4.85;83.08;96998.50;7396980;19;961;-66
2024/02/20 03:18:39;;;;;;;;;;;;;;;4.88;82.67;96995.91;7396508;19;1029;-65
2024/02/20 03:21:08;;;;;;;;;;;;;;;4.88;82.92;96994.16;7396411;19;1049;-70
2024/02/20 03:23:36;;;;;;;;;;;;;;;4.84;82.71;96992.47;7396427;19;1009;-65
2024/02/20 03:26:05;;;;;;;;;;;;;;;4.83;82.72;96992.47;7396514;19;1850;-69
2024/02/20 03:28:33;;;;;;;;;;;;;;;4.83;82.89;97001.13;7396697;19;1006;-74
2024/02/20 03:31:03;;;;;;;;;;;;;;;4.79;83.16;97002.03;7396618;19;1071;-73
2024/02/20 03:33:34;;;;;;;;;;;;;;;4.81;83.25;97000.25;7396118;19;1080;-73
2024/02/20 03:36:04;;;;;;;;;;;;;;;4.83;83.04;96995.06;7396023;19;1156;-67
2024/02/20 03:38:32;;;;;;;;;;;;;;;4.84;83.44;97000.25;7395185;19;1296;-74
2024/02/20 03:41:01;;;;;;;;;;;;;;;4.81;83.44;97005.44;7396534;19;973;-69
2024/02/20 03:43:29;;;;;;;;;;;;;;;4.82;83.14;96998.53;7395818;19;1072;-68
2024/02/20 03:45:58;;;;;;;;;;;;;;;4.83;83.08;96998.53;7395820;19;954;-69
2024/02/20 03:48:26;;;;;;;;;;;;;;;4.85;83.19;96996.75;7394066;19;1845;-69
2024/02/20 03:50:57;;;;;;;;;;;;;;;4.89;83.29;96995.88;7396121;19;1815;-73
2024/02/20 03:53:26;;;;;;;;;;;;;;;4.87;83.24;96987.25;7396004;19;941;-71
2024/02/20 03:55:54;;;;;;;;;;;;;;;4.83;83.23;96993.34;7396133;19;1080;-69
2024/02/20 03:58:23;;;;;;;;;;;;;;;4.79;83.31;96997.66;7395812;19;1815;-66
2024/02/20 04:00:51;;;;;;;;;;;;;;;4.81;83.53;96997.66;7395837;19;1839;-65
2024/02/20 04:03:21;;;;;;;;;;;;;;;4.80;83.43;97001.13;7402206;19;1806;-71
2024/02/20 04:05:50;;;;;;;;;;;;;;;4.80;83.56;97007.19;7402704;19;1056;-67
2024/02/20 04:08:21;;;;;;;;;;;;;;;4.79;83.56;97000.25;7400639;19;1849;-71
2024/02/20 04:10:49;;;;;;;;;;;;;;;4.79;83.43;97000.25;7402491;19;1060;-69
2024/02/20 04:13:18;;;;;;;;;;;;;;;4.73;83.57;97004.66;7403205;19;1676;-71
2024/02/20 04:15:49;;;;;;;;;;;;;;;4.71;83.66;96999.47;7402736;19;1858;-68
2024/02/20 04:18:18;;;;;;;;;;;;;;;4.68;83.98;97000.38;7402182;19;1130;-74
2024/02/20 04:20:46;;;;;;;;;;;;;;;4.70;83.32;97002.06;7402198;19;1107;-67
2024/02/20 04:23:15;;;;;;;;;;;;;;;4.70;83.60;96996.91;7402386;19;1826;-72
2024/02/20 04:25:46;;;;;;;;;;;;;;;4.70;83.52;96994.31;7402352;19;1832;-66
2024/02/20 04:28:14;;;;;;;;;;;;;;;4.71;83.34;96996.88;7400341;19;1844;-70
2024/02/20 04:30:44;;;;;;;;;;;;;;;4.67;83.58;96997.78;7402359;19;1016;-68
2024/02/20 04:33:13;;;;;;;;;;;;;;;4.65;84.13;97007.28;7401755;19;1018;-70
2024/02/20 04:35:41;;;;;;;;;;;;;;;4.62;83.83;97005.59;7402281;19;1032;-74
2024/02/20 04:38:10;;;;;;;;;;;;;;;4.58;83.71;96997.84;7401342;19;1133;-69
2024/02/20 04:40:39;;;;;;;;;;;;;;;4.51;84.39;97005.66;7402019;19;965;-71
2024/02/20 04:43:10;;;;;;;;;;;;;;;4.49;84.24;97001.34;7401349;19;1147;-68
2024/02/20 04:45:39;;;;;;;;;;;;;;;4.52;84.37;97002.19;7401784;19;1064;-66
2024/02/20 04:48:07;;;;;;;;;;;;;;;4.52;84.11;97003.94;7399462;19;1842;-64
2024/02/20 04:50:36;;;;;;;;;;;;;;;4.50;84.18;97008.25;7402014;19;1656;-66
2024/02/20 04:53:04;;;;;;;;;;;;;;;4.51;84.54;97007.38;7401819;19;950;-64
2024/02/20 04:55:33;;;;;;;;;;;;;;;4.49;84.32;96997.00;7401296;19;1835;-67
2024/02/20 04:58:01;;;;;;;;;;;;;;;4.48;84.41;97002.25;7401172;19;1910;-67
2024/02/20 05:00:32;;;;;;;;;;;;;;;4.48;84.72;96999.66;7401434;19;1020;-63
2024/02/20 05:03:02;;;;;;;;;;;;;;;4.42;84.65;97001.38;7401364;19;1010;-69
2024/02/20 05:05:31;;;;;;;;;;;;;;;4.45;85.08;97000.50;7400803;19;1038;-65
2024/02/20 05:07:59;;;;;;;;;;;;;;;4.49;84.77;96999.59;7399350;19;1849;-71
2024/02/20 05:10:28;;;;;;;;;;;;;;;4.50;84.85;97011.72;7401000;19;1818;-73
2024/02/20 05:12:57;;;;;;;;;;;;;;;4.54;84.54;97010.81;7399922;19;1035;-70
2024/02/20 05:15:25;;;;;;;;;;;;;;;4.58;84.38;97008.22;7399789;19;1057;-69
2024/02/20 05:17:56;;;;;;;;;;;;;;;4.57;84.11;97009.09;7400231;19;1069;-65
2024/02/20 05:20:25;;;;;;;;;;;;;;;4.51;84.33;97013.44;7400277;19;1131;-69
2024/02/20 05:22:53;;;;;;;;;;;;;;;4.53;84.32;97016.88;7400414;19;1829;-69
2024/02/20 05:25:22;;;;;;;;;;;;;;;4.55;84.41;97017.72;7400476;19;1124;-75
2024/02/20 05:30:46;;;;;;;;;;;;;;;4.61;84.19;97022.00;7399462;19;1024;-71
2024/02/20 05:33:18;;;;;;;;;;;;;;;4.60;83.91;97016.84;7399793;19;1116;-65
2024/02/20 05:35:46;;;;;;;;;;;;;;;4.61;83.77;97022.00;7400254;19;972;-67
2024/02/20 05:38:16;;;;;;;;;;;;;;;4.65;83.77;97026.31;7399073;19;1111;-62
2024/02/20 05:40:45;;;;;;;;;;;;;;;4.66;83.61;97020.25;7400052;19;997;-67
2024/02/20 05:43:13;;;;;;;;;;;;;;;4.60;83.50;97028.06;7399439;19;1183;-68
2024/02/20 05:45:41;;;;;;;;;;;;;;;4.58;83.84;97027.22;7399462;19;1107;-71
2024/02/20 05:48:12;;;;;;;;;;;;;;;4.62;83.68;97033.22;7398139;19;1846;-68
2024/02/20 05:50:43;;;;;;;;;;;;;;;4.63;83.68;97030.63;7399166;19;1025;-67
2024/02/20 05:53:12;;;;;;;;;;;;;;;4.65;83.79;97034.06;7399076;19;1061;-73
2024/02/20 05:55:40;;;;;;;;;;;;;;;4.64;83.46;97036.69;7399467;19;1036;-66
2024/02/20 05:58:08;;;;;;;;;;;;;;;4.67;83.34;97034.06;7399420;19;1898;-66
2024/02/20 06:00:38;;;;;;;;;;;;;;;4.65;83.29;97036.66;7399362;19;873;-68
2024/02/20 06:03:07;;;;;;;;;;;;;;;4.67;83.50;97037.50;7398907;19;1065;-70
2024/02/20 06:05:35;;;;;;;;;;;;;;;4.71;83.19;97043.53;7398776;19;1092;-64
2024/02/20 06:08:06;;;;;;;;;;;;;;;4.73;83.02;97043.53;7398119;19;1844;-69
2024/02/20 06:10:35;;;;;;;;;;;;;;;4.76;83.06;97046.09;7398597;19;1065;-74
2024/02/20 06:13:03;;;;;;;;;;;;;;;4.79;82.82;97051.28;7398683;19;970;-63
2024/02/20 06:15:32;;;;;;;;;;;;;;;4.80;82.63;97055.56;7398751;19;1016;-72
2024/02/20 06:18:00;;;;;;;;;;;;;;;4.78;82.68;97050.41;7398569;19;1926;-69
2024/02/20 06:20:28;;;;;;;;;;;;;;;4.79;82.56;97053.88;7398236;19;1111;-73
2024/02/20 06:22:59;;;;;;;;;;;;;;;4.79;82.37;97053.88;7398615;19;1877;-67
2024/02/20 06:25:30;;;;;;;;;;;;;;;4.80;82.63;97053.84;7398524;19;954;-70
2024/02/20 06:27:59;;;;;;;;;;;;;;;4.78;82.37;97054.72;7397646;19;1846;-71
2024/02/20 06:30:27;;;;;;;;;;;;;;;4.68;82.49;97049.63;7398327;19;1040;-67
2024/02/20 06:32:56;;;;;;;;;;;;;;;4.71;82.71;97058.22;7398324;19;930;-68
2024/02/20 06:35:24;;;;;;;;;;;;;;;4.73;82.22;97052.16;7398136;19;1807;-71
2024/02/20 06:37:53;;;;;;;;;;;;;;;4.78;82.25;97053.00;7397617;19;1033;-68
2024/02/20 06:40:21;;;;;;;;;;;;;;;4.84;82.03;97059.88;7398103;19;960;-65
2024/02/20 06:42:52;;;;;;;;;;;;;;;4.87;81.80;97065.03;7397959;19;1025;-68
2024/02/20 06:45:21;;;;;;;;;;;;;;;4.93;81.55;97069.31;7398018;19;955;-69
2024/02/20 06:47:49;;;;;;;;;;;;;;;4.89;81.92;97070.22;7396731;19;1861;-66
2024/02/20 06:50:18;;;;;;;;;;;;;;;4.95;81.52;97066.72;7397723;19;1013;-70
2024/02/20 06:52:46;;;;;;;;;;;;;;;4.98;81.40;97075.34;7397187;19;1108;-70
2024/02/20 06:55:15;;;;;;;;;;;;;;;5.03;81.14;97068.38;7397576;19;998;-66
2024/02/20 06:57:43;;;;;;;;;;;;;;;5.08;80.91;97070.94;7396906;19;1057;-64
2024/02/20 07:00:15;;;;;;;;;;;;;;;5.09;80.59;97070.06;7397537;19;1793;-68
2024/02/20 07:02:44;;;;;;;;;;;;;;;5.09;80.15;97070.06;7397084;19;1128;-67
2024/02/20 07:05:14;;;;;;;;;;;;;;;5.12;80.10;97076.97;7397434;19;1064;-67
2024/02/20 07:07:42;;;;;;;;;;;;;;;5.13;80.15;97071.78;7396914;19;1853;-62
2024/02/20 07:10:11;;;;;;;;;;;;;;;5.14;80.25;97075.22;7397019;19;1885;-71
2024/02/20 07:12:40;;;;;;;;;;;;;;;5.07;80.52;97074.41;7397138;19;942;-71
2024/02/20 07:15:09;;;;;;;;;;;;;;;5.10;81.20;97070.91;7396964;19;1820;-70
2024/02/20 07:17:40;;;;;;;;;;;;;;;5.13;80.87;97071.78;7396866;19;1814;-68
2024/02/20 07:20:11;;;;;;;;;;;;;;;5.16;80.70;97069.16;7396474;19;1111;-66
2024/02/20 07:22:40;;;;;;;;;;;;;;;5.17;80.52;97070.00;7396565;19;1111;-68
2024/02/20 07:25:09;;;;;;;;;;;;;;;5.24;80.53;97070.81;7396794;19;1611;-69
2024/02/20 07:27:37;;;;;;;;;;;;;;;5.23;80.69;97074.28;7396608;19;1825;-73
2024/02/20 07:30:08;;;;;;;;;;;;;;;5.25;80.75;97076.00;7396713;19;1440;-65
2024/02/20 07:32:37;;;;;;;;;;;;;;;5.29;80.71;97077.69;7396190;19;1056;-67
2024/02/20 07:35:09;;;;;;;;;;;;;;;5.32;80.45;97076.78;7396513;19;1795;-66
2024/02/20 07:37:38;;;;;;;;;;;;;;;5.30;80.38;97075.97;7400640;19;1149;-69
2024/02/20 07:40:08;;;;;;;;;;;;;;;5.30;79.56;97068.19;7400894;19;1154;-66
2024/02/20 07:42:37;;;;;;;;;;;;;;;5.26;80.03;97075.13;7403457;19;1057;-71
2024/02/20 07:45:06;;;;;;;;;;;;;;;5.28;80.13;97067.31;7403496;19;1411;-75
2024/02/20 07:47:35;;;;;;;;;;;;;;;5.29;80.37;97072.50;7403177;19;1834;-73
2024/02/20 07:50:04;;;;;;;;;;;;;;;5.26;80.07;97071.66;7403740;19;973;-71
2024/02/20 07:52:35;;;;;;;;;;;;;;;5.17;80.98;97072.59;7403206;19;1088;-74
2024/02/20 07:55:04;;;;;;;;;;;;;;;5.18;81.21;97070.00;7403687;19;938;-62
2024/02/20 07:57:34;;;;;;;;;;;;;;;5.21;81.29;97079.47;7403033;19;1103;-72
2024/02/20 08:00:05;;;;;;;;;;;;;;;5.28;80.80;97072.50;7403084;19;1111;-70
2024/02/20 08:02:33;;;;;;;;;;;;;;;5.34;80.59;97077.66;7402937;19;1049;-67
2024/02/20 08:05:02;;;;;;;;;;;;;;;5.37;80.48;97074.16;7402865;19;1041;-70
2024/02/20 08:07:31;;;;;;;;;;;;;;;5.41;79.82;97081.03;7403049;19;1891;-65
2024/02/20 08:10:02;;;;;;;;;;;;;;;5.48;79.71;97081.88;7399936;19;1833;-71
2024/02/20 08:12:30;;;;;;;;;;;;;;;5.50;79.18;97073.19;7401077;19;1401;-74
2024/02/20 08:14:59;;;;;;;;;;;;;;;5.55;78.80;97079.22;7402851;19;1082;-72
2024/02/20 08:17:28;;;;;;;;;;;;;;;5.52;79.02;97074.03;7402771;19;1032;-71
2024/02/20 08:19:57;;;;;;;;;;;;;;;5.52;79.13;97074.03;7402225;19;1026;-71
2024/02/20 08:22:25;;;;;;;;;;;;;;;5.54;78.99;97077.47;7402138;19;1131;-70
2024/02/20 08:24:54;;;;;;;;;;;;;;;5.57;78.50;97081.78;7402504;19;1048;-69
2024/02/20 08:27:25;;;;;;;;;;;;;;;5.60;78.24;97073.09;7402116;19;1038;-69
2024/02/20 08:29:54;;;;;;;;;;;;;;;5.60;78.46;97086.09;7399679;19;1849;-63
2024/02/20 08:32:22;;;;;;;;;;;;;;;5.54;78.28;97087.84;7401897;19;1017;-70
2024/02/20 08:34:51;;;;;;;;;;;;;;;5.48;77.98;97087.91;7401838;19;1123;-75
2024/02/20 08:37:20;;;;;;;;;;;;;;;5.46;78.22;97083.59;7402166;19;1179;-70
2024/02/20 08:39:50;;;;;;;;;;;;;;;5.41;78.46;97081.03;7400079;19;1831;-67
2024/02/20 08:42:19;;;;;;;;;;;;;;;5.35;78.40;97086.28;7401515;19;1045;-72
2024/02/20 08:44:50;;;;;;;;;;;;;;;5.34;79.22;97087.16;7401465;19;1433;-70
2024/02/20 08:47:18;;;;;;;;;;;;;;;5.34;79.37;97088.03;7401366;19;1317;-65
2024/02/20 08:49:50;;;;;;;;;;;;;;;5.37;78.96;97092.34;7397145;19;1841;-71
2024/02/20 08:52:19;;;;;;;;;;;;;;;5.40;79.09;97088.00;7401156;19;1112;-70
2024/02/20 08:54:48;;;;;;;;;;;;;;;5.47;78.51;97091.38;7401563;19;1001;-73
2024/02/20 08:57:16;;;;;;;;;;;;;;;5.47;79.04;97093.97;7401433;19;1025;-71
2024/02/20 08:59:45;;;;;;;;;;;;;;;5.54;78.85;97087.00;7400941;19;1018;-65
2024/02/20 09:02:16;;;;;;;;;;;;;;;5.64;78.60;97088.63;7401232;19;1064;-69
2024/02/20 09:04:45;;;;;;;;;;;;;;;5.64;77.84;97090.38;7401298;19;1008;-69
2024/02/20 09:07:14;;;;;;;;;;;;;;;5.65;78.13;97090.34;7400995;19;1815;-67
2024/02/20 09:09:43;;;;;;;;;;;;;;;5.72;77.41;97092.91;7398948;19;1810;-69
2024/02/20 09:12:11;;;;;;;;;;;;;;;5.79;76.87;97091.97;7401268;19;1650;-65
2024/02/20 09:14:40;;;;;;;;;;;;;;;5.83;77.04;97088.44;7400844;19;1729;-72
2024/02/20 09:17:08;;;;;;;;;;;;;;;5.84;77.32;97094.50;7400773;19;1794;-71
2024/02/20 09:19:40;;;;;;;;;;;;;;;5.77;77.28;97091.97;7400335;19;1032;-67
2024/02/20 09:22:10;;;;;;;;;;;;;;;5.77;77.92;97099.75;7400256;19;1075;-72
2024/02/20 09:24:38;;;;;;;;;;;;;;;5.85;77.82;97097.09;7400598;19;965;-69
2024/02/20 09:27:07;;;;;;;;;;;;;;;5.84;77.49;97099.69;7400069;19;1033;-68
2024/02/20 09:29:35;;;;;;;;;;;;;;;5.86;77.29;97097.94;7398825;19;1848;-67
2024/02/20 09:32:04;;;;;;;;;;;;;;;5.85;77.03;97091.91;7400117;19;1913;-71
2024/02/20 09:34:33;;;;;;;;;;;;;;;5.94;77.14;97093.53;7399821;19;1092;-70
2024/02/20 09:37:05;;;;;;;;;;;;;;;5.97;77.16;97096.09;7400205;19;973;-70
2024/02/20 09:39:33;;;;;;;;;;;;;;;5.88;76.72;97091.88;7397753;19;1159;-65
2024/02/20 09:42:06;;;;;;;;;;;;;;;5.91;77.53;97096.16;7399608;19;1045;-71
2024/02/20 09:44:36;;;;;;;;;;;;;;;5.85;77.64;97098.81;7399520;19;938;-69
2024/02/20 09:47:05;;;;;;;;;;;;;;;5.91;77.89;97093.56;7399304;19;1017;-73
2024/02/20 09:49:35;;;;;;;;;;;;;;;5.97;77.49;97090.91;7397964;19;1863;-71
2024/02/20 09:52:08;;;;;;;;;;;;;;;6.03;77.36;97089.97;7399700;19;1001;-69
2024/02/20 09:54:37;;;;;;;;;;;;;;;6.07;77.10;97089.09;7399042;19;1104;-68
2024/02/20 09:57:06;;;;;;;;;;;;;;;6.18;77.31;97089.81;7398953;19;1100;-73
2024/02/20 09:59:34;;;;;;;;;;;;;;;6.30;76.82;97082.78;7398605;19;1917;-71
2024/02/20 10:02:03;;;;;;;;;;;;;;;6.37;75.53;97084.41;7399444;19;1008;-63
2024/02/20 10:04:34;;;;;;;;;;;;;;;6.25;75.32;97076.75;7399190;19;1917;-72
2024/02/20 10:07:08;;;;;;;;;;;;;;;6.35;75.81;97078.38;7398751;19;1057;-69
2024/02/20 10:09:36;;;;;;;;;;;;;;;6.53;75.62;97082.47;7397528;19;1861;-72
2024/02/20 10:12:05;;;;;;;;;;;;;;;6.68;74.91;97075.34;7398644;19;1069;-70
2024/02/20 10:14:34;;;;;;;;;;;;;;;6.75;74.74;97070.94;7399034;19;933;-75
2024/02/20 10:17:03;;;;;;;;;;;;;;;6.87;74.15;97064.69;7399232;19;1744;-70
2024/02/20 10:19:31;;;;;;;;;;;;;;;6.99;73.71;97063.66;7398389;19;1100;-71
2024/02/20 10:22:00;;;;;;;;;;;;;;;7.04;73.61;97061.81;7398648;19;1098;-72
2024/02/20 10:24:32;;;;;;;;;;;;;;;7.15;73.19;97064.25;7398159;19;1013;-68
2024/02/20 10:27:00;;;;;;;;;;;;;;;7.31;72.98;97062.25;7398023;19;1085;-70
2024/02/20 10:29:30;;;;;;;;;;;;;;;7.50;72.89;97057.63;7397581;19;1842;-66
2024/02/20 10:31:58;;;;;;;;;;;;;;;7.65;72.09;97061.69;7397898;19;1104;-65
2024/02/20 10:34:27;;;;;;;;;;;;;;;7.70;70.57;97065.06;7397772;19;1092;-68
2024/02/20 10:37:05;;;;;;;;;;;;;;;7.62;70.96;97055.69;7397738;19;1117;-71
2024/02/20 10:39:37;;;;;;;;;;;;;;;7.43;71.90;97051.66;7396321;19;1135;-71
2024/02/20 10:42:08;;;;;;;;;;;;;;;7.46;71.14;97051.59;7398092;19;1229;-70
2024/02/20 10:44:37;;;;;;;;;;;;;;;7.37;71.26;97046.53;7398039;19;1027;-71
2024/02/20 10:47:08;;;;;;;;;;;;;;;7.21;71.93;97045.94;7397564;19;1030;-70
2024/02/20 10:49:38;;;;;;;;;;;;;;;7.06;73.42;97041.84;7396558;19;1841;-74
2024/02/20 10:52:07;;;;;;;;;;;;;;;7.14;73.35;97041.72;7397343;19;1033;-70
2024/02/20 10:54:40;;;;;;;;;;;;;;;7.14;72.71;97036.53;7397324;19;1022;-65
2024/02/20 10:57:09;;;;;;;;;;;;;;;7.08;72.77;97032.28;7397308;19;1025;-76
2024/02/20 10:59:37;;;;;;;;;;;;;;;7.11;73.05;97027.03;7397581;19;1025;-69
2024/02/20 11:02:06;;;;;;;;;;;;;;;7.18;72.29;97025.19;7397300;19;2132;-69
2024/02/20 11:04:35;;;;;;;;;;;;;;;7.23;72.91;97022.50;7397233;19;1911;-72
2024/02/20 11:07:04;;;;;;;;;;;;;;;7.24;72.86;97019.88;7397292;19;1027;-67
2024/02/20 11:09:32;;;;;;;;;;;;;;;7.22;72.42;97008.63;7396533;19;1850;-70
2024/02/20 11:12:11;;;;;;;;;;;;;;;7.31;73.07;97010.22;7395204;19;1722;-67
2024/02/20 11:14:40;;;;;;;;;;;;;;;7.26;73.03;97015.53;7396816;19;1951;-71
2024/02/20 11:17:15;;;;;;;;;;;;;;;7.32;72.32;97006.75;7396686;19;1084;-68
2024/02/20 11:19:44;;;;;;;;;;;;;;;7.37;72.17;97004.91;7396945;19;1039;-67
2024/02/20 11:22:12;;;;;;;;;;;;;;;7.50;71.66;97000.34;7397011;19;956;-69
2024/02/20 11:24:41;;;;;;;;;;;;;;;7.57;72.08;96998.47;7396543;19;1087;-70
2024/02/20 11:27:48;;;;;;;;;;;;;;;7.58;71.75;97003.66;7396740;19;1785;-67
2024/02/20 11:30:24;;;;;;;;;;;;;;;7.50;71.13;96997.75;7394633;19;1849;-72
2024/02/20 11:32:52;;;;;;;;;;;;;;;7.54;71.21;96998.53;7396234;19;1084;-72
2024/02/20 11:35:23;;;;;;;;;;;;;;;7.58;71.37;96992.38;7396206;19;1123;-71
2024/02/20 11:37:53;;;;;;;;;;;;;;;7.70;70.09;96994.75;7396098;19;1096;-67
2024/02/20 11:40:26;;;;;;;;;;;;;;;7.66;70.20;96995.72;7396077;19;1044;-71
2024/02/20 11:42:55;;;;;;;;;;;;;;;7.65;71.00;96987.94;7396827;19;1598;-70
2024/02/20 11:45:29;;;;;;;;;;;;;;;7.46;70.05;96996.06;7395947;19;1009;-68
2024/02/20 11:48:05;;;;;;;;;;;;;;;7.40;70.71;96991.84;7396372;19;1040;-69
2024/02/20 11:50:34;;;;;;;;;;;;;;;7.50;70.32;96991.69;7394305;19;1863;-66
2024/02/20 11:53:03;;;;;;;;;;;;;;;7.51;70.71;96981.22;7396126;19;1923;-68
2024/02/20 11:55:32;;;;;;;;;;;;;;;7.56;70.60;96983.75;7395961;19;1802;-70
2024/02/20 11:58:01;;;;;;;;;;;;;;;7.48;71.18;96977.81;7395828;19;1829;-65
2024/02/20 12:00:34;;;;;;;;;;;;;;;7.52;71.06;96969.91;7395986;19;1047;-65
2024/02/20 12:03:03;;;;;;;;;;;;;;;7.49;71.22;96977.78;7395435;19;1099;-70
2024/02/20 12:05:37;;;;;;;;;;;;;;;7.52;71.27;96979.47;7395443;19;1060;-74
2024/02/20 12:08:12;;;;;;;;;;;;;;;7.52;70.92;96972.53;7395344;19;1852;-69
2024/02/20 12:10:41;;;;;;;;;;;;;;;7.58;70.40;96974.16;7393578;19;1868;-64
2024/02/20 12:13:16;;;;;;;;;;;;;;;7.59;70.21;96966.31;7395614;19;1016;-68
2024/02/20 12:15:49;;;;;;;;;;;;;;;7.56;70.55;96975.94;7395184;19;1014;-69
2024/02/20 12:18:25;;;;;;;;;;;;;;;7.49;70.09;96963.94;7395170;19;1037;-69
2024/02/20 12:20:54;;;;;;;;;;;;;;;7.43;70.38;96972.69;7395688;19;957;-73
2024/02/20 12:23:22;;;;;;;;;;;;;;;7.42;70.32;96970.97;7398466;19;954;-75
2024/02/20 12:25:51;;;;;;;;;;;;;;;7.44;69.96;96970.06;7402049;19;1061;-72
2024/02/20 12:28:19;;;;;;;;;;;;;;;7.43;70.68;96962.28;7402665;19;1029;-69
2024/02/20 12:30:53;;;;;;;;;;;;;;;7.46;70.09;96964.81;7400736;19;1834;-73
2024/02/20 12:33:22;;;;;;;;;;;;;;;7.51;70.56;96959.53;7401777;19;1144;-74
2024/02/20 12:35:50;;;;;;;;;;;;;;;7.50;70.30;96956.09;7402342;19;1051;-73
2024/02/20 12:38:18;;;;;;;;;;;;;;;7.55;69.47;96956.84;7401423;19;1106;-71
2024/02/20 12:40:47;;;;;;;;;;;;;;;7.59;70.08;96950.69;7402174;19;933;-70
2024/02/20 12:43:15;;;;;;;;;;;;;;;7.67;69.79;96955.75;7401496;19;1085;-68
2024/02/20 12:45:44;;;;;;;;;;;;;;;7.78;69.79;96955.53;7401525;19;1072;-71
2024/02/20 12:48:15;;;;;;;;;;;;;;;7.89;69.97;96950.09;7401619;19;1867;-69
2024/02/20 12:50:44;;;;;;;;;;;;;;;7.89;68.89;96951.88;7399643;19;1842;-70
2024/02/20 12:53:13;;;;;;;;;;;;;;;7.88;69.33;96948.38;7401598;19;1017;-63
2024/02/20 12:55:41;;;;;;;;;;;;;;;7.96;68.44;96945.63;7401054;19;1085;-74
2024/02/20 12:58:10;;;;;;;;;;;;;;;8.11;68.33;96944.44;7401374;19;1821;-67
2024/02/20 13:00:39;;;;;;;;;;;;;;;8.15;67.01;96940.00;7401404;19;968;-71
2024/02/20 13:03:09;;;;;;;;;;;;;;;8.22;67.26;96944.22;7401304;19;961;-67
2024/02/20 13:05:41;;;;;;;;;;;;;;;8.34;67.43;96940.47;7401131;19;1899;-71
2024/02/20 13:08:11;;;;;;;;;;;;;;;8.44;66.80;96939.38;7400679;19;1032;-68
2024/02/20 13:10:41;;;;;;;;;;;;;;;8.36;66.69;96940.44;7399299;19;1853;-68
2024/02/20 13:13:10;;;;;;;;;;;;;;;8.30;67.34;96942.28;7400464;19;1133;-71
2024/02/20 13:15:39;;;;;;;;;;;;;;;8.38;66.06;96946.47;7400466;19;1152;-74
2024/02/20 13:18:08;;;;;;;;;;;;;;;8.45;65.65;96935.88;7400367;19;1103;-72
2024/02/20 13:20:37;;;;;;;;;;;;;;;8.59;65.88;96937.34;7400393;19;1103;-72
2024/02/20 13:23:08;;;;;;;;;;;;;;;8.56;64.67;96937.41;7400618;19;1038;-70